メインページ
METAR-TAF:

METAR-TAF

空港 :

ベドフォード, マサチューセッツ州, アメリカ合衆国

緯度: 42-28-06N, 経度: 071-17-40W, 海抜: 40m

現時点の気象観測

当レポートは47分前の04:56(UTC)に作成
無風
気温 18°C
湿度 83%
気圧 1017 hPa
視程: 16.1km
晴天

METAR: KBED 210456Z AUTO 00000KT 10SM CLR 18/15 A3003 RMK AO2 SLP178 T01830150 403280183

時間: 01:43 (05:43 UTC)

予報

当レポートは16分前の05:27(UTC)に作成
予報は21日の 06時(UTC)から 22日の 06時(UTC)まで有効
変向風 3kt
視程: 10km
高度25000ftの雲はほとんどない
21日の 1500時(UTC)から
の風 5kt
視程: 10km
高度4500ftの千切れ雲あり
近辺でにわか雨
21日の 2000時(UTC)から
の風 7kt
視程: 8.0km
高度5000ftの千切れ雲あり
弱いにわか雨
22日の 0400時(UTC)から
南/南西の風 6kt
視程: 10km
高度4500ftの千切れ雲あり
近辺でにわか雨

TAF: KBED 210527Z 2106/2206 VRB03KT P6SM FEW250 FM211500 19005KT P6SM VCSH BKN045 FM212000 19007KT 5SM -SHRA BKN050 FM220400 21006KT P6SM VCSH BKN045

4,000以上の空港の気象観測と天気予報(METAR報とTAF報)

利用可能な観測所は地図上に黄色い丸と赤い丸で示す。

丸の上にカーソルを重ねると観測所名を参照できる。

次にクリックすると気象観測と天気予報を参照できる。

マップの切り替え:黒色「×」印の緑ボタンをクリックして拡大、「-」印の緑ボタンをクリックして縮小、緑色の三角印をクリックして隣りの地図に切り替え


METAR-TAF: